sensor_id;sensor_type;location;lat;lon;timestamp;pressure;altitude;pressure_sealevel;temperature;humidity
60589;BME280;46421;48.610;9.334;2023-03-03T00:00:58;98209.63;;;2.35;83.50
60589;BME280;46421;48.610;9.334;2023-03-03T00:03:24;98208.09;;;2.33;84.74
60589;BME280;46421;48.610;9.334;2023-03-03T00:05:51;98207.25;;;2.21;85.72
60589;BME280;46421;48.610;9.334;2023-03-03T00:08:18;98217.03;;;2.30;85.95
60589;BME280;46421;48.610;9.334;2023-03-03T00:10:43;98208.81;;;2.35;86.57
60589;BME280;46421;48.610;9.334;2023-03-03T00:13:20;98211.78;;;2.64;85.25
60589;BME280;46421;48.610;9.334;2023-03-03T00:15:46;98214.19;;;2.56;86.26
60589;BME280;46421;48.610;9.334;2023-03-03T00:18:33;98217.19;;;2.95;82.65
60589;BME280;46421;48.610;9.334;2023-03-03T00:21:01;98216.28;;;2.74;83.09
60589;BME280;46421;48.610;9.334;2023-03-03T00:23:34;98209.16;;;2.42;84.84
60589;BME280;46421;48.610;9.334;2023-03-03T00:26:00;98218.25;;;2.15;85.61
60589;BME280;46421;48.610;9.334;2023-03-03T00:28:31;98209.88;;;2.21;85.99
60589;BME280;46421;48.610;9.334;2023-03-03T00:30:59;98221.31;;;1.97;86.26
60589;BME280;46421;48.610;9.334;2023-03-03T00:36:27;98219.13;;;1.80;89.22
60589;BME280;46421;48.610;9.334;2023-03-03T00:38:59;98227.16;;;2.01;88.58
60589;BME280;46421;48.610;9.334;2023-03-03T00:41:35;98224.41;;;1.91;89.44
60589;BME280;46421;48.610;9.334;2023-03-03T00:44:28;98217.50;;;1.79;90.14
60589;BME280;46421;48.610;9.334;2023-03-03T00:46:55;98216.78;;;2.11;88.45
60589;BME280;46421;48.610;9.334;2023-03-03T00:49:25;98220.97;;;2.02;88.93
60589;BME280;46421;48.610;9.334;2023-03-03T00:51:52;98215.09;;;1.87;88.38
60589;BME280;46421;48.610;9.334;2023-03-03T00:54:17;98212.84;;;1.94;89.50
60589;BME280;46421;48.610;9.334;2023-03-03T00:56:43;98218.19;;;1.81;89.56
60589;BME280;46421;48.610;9.334;2023-03-03T00:59:08;98209.00;;;1.75;89.77
60589;BME280;46421;48.610;9.334;2023-03-03T01:01:34;98206.53;;;1.85;89.00
60589;BME280;46421;48.610;9.334;2023-03-03T01:03:59;98187.91;;;1.65;88.97
60589;BME280;46421;48.610;9.334;2023-03-03T01:06:24;98212.56;;;1.63;89.71
60589;BME280;46421;48.610;9.334;2023-03-03T01:08:50;98204.81;;;1.72;89.71
60589;BME280;46421;48.610;9.334;2023-03-03T01:11:20;98204.75;;;1.38;90.64
60589;BME280;46421;48.610;9.334;2023-03-03T01:13:47;98214.50;;;1.36;89.89
60589;BME280;46421;48.610;9.334;2023-03-03T01:16:13;98216.13;;;1.26;90.92
60589;BME280;46421;48.610;9.334;2023-03-03T01:18:39;98215.31;;;1.25;91.57
60589;BME280;46421;48.610;9.334;2023-03-03T01:21:07;98211.22;;;1.46;90.59
60589;BME280;46421;48.610;9.334;2023-03-03T01:23:33;98213.84;;;1.46;90.42
60589;BME280;46421;48.610;9.334;2023-03-03T01:25:58;98212.25;;;1.79;85.73
60589;BME280;46421;48.610;9.334;2023-03-03T01:28:24;98207.31;;;1.51;88.87
60589;BME280;46421;48.610;9.334;2023-03-03T01:30:49;98214.66;;;1.46;89.41
60589;BME280;46421;48.610;9.334;2023-03-03T01:33:15;98207.31;;;1.63;86.25
60589;BME280;46421;48.610;9.334;2023-03-03T01:35:45;98209.06;;;1.15;89.23
60589;BME280;46421;48.610;9.334;2023-03-03T01:38:11;98195.97;;;1.15;87.43
60589;BME280;46421;48.610;9.334;2023-03-03T01:40:37;98212.25;;;0.83;89.41
60589;BME280;46421;48.610;9.334;2023-03-03T01:43:02;98210.50;;;0.46;91.84
60589;BME280;46421;48.610;9.334;2023-03-03T01:45:30;98200.72;;;0.86;90.88
60589;BME280;46421;48.610;9.334;2023-03-03T01:48:43;98212.97;;;1.34;87.37
60589;BME280;46421;48.610;9.334;2023-03-03T01:53:45;98215.63;;;0.48;91.51
60589;BME280;46421;48.610;9.334;2023-03-03T01:56:13;98214.41;;;0.28;92.22
60589;BME280;46421;48.610;9.334;2023-03-03T01:58:45;98205.53;;;0.55;92.10
60589;BME280;46421;48.610;9.334;2023-03-03T02:01:19;98205.31;;;0.58;87.97
60589;BME280;46421;48.610;9.334;2023-03-03T02:03:46;98200.53;;;0.76;89.69
60589;BME280;46421;48.610;9.334;2023-03-03T02:06:14;98198.16;;;0.97;87.02
60589;BME280;46421;48.610;9.334;2023-03-03T02:09:04;98197.22;;;0.24;91.64
60589;BME280;46421;48.610;9.334;2023-03-03T02:11:33;98199.47;;;-0.09;94.11
60589;BME280;46421;48.610;9.334;2023-03-03T02:14:00;98194.34;;;-0.23;94.81
60589;BME280;46421;48.610;9.334;2023-03-03T02:16:26;98191.31;;;-0.30;95.14
60589;BME280;46421;48.610;9.334;2023-03-03T02:18:51;98194.97;;;-0.07;96.12
60589;BME280;46421;48.610;9.334;2023-03-03T02:21:18;98199.19;;;0.70;90.98
60589;BME280;46421;48.610;9.334;2023-03-03T02:24:13;98187.75;;;0.60;90.10
60589;BME280;46421;48.610;9.334;2023-03-03T02:26:40;98186.13;;;0.33;92.77
60589;BME280;46421;48.610;9.334;2023-03-03T02:29:07;98181.81;;;0.45;93.48
60589;BME280;46421;48.610;9.334;2023-03-03T02:31:33;98178.22;;;0.22;91.93
60589;BME280;46421;48.610;9.334;2023-03-03T02:33:59;98175.13;;;-0.09;93.59
60589;BME280;46421;48.610;9.334;2023-03-03T02:36:27;98167.31;;;0.65;91.68
60589;BME280;46421;48.610;9.334;2023-03-03T02:39:16;98174.38;;;1.00;88.75
60589;BME280;46421;48.610;9.334;2023-03-03T02:41:56;98180.97;;;0.57;91.05
60589;BME280;46421;48.610;9.334;2023-03-03T02:44:26;98169.09;;;0.27;92.36
60589;BME280;46421;48.610;9.334;2023-03-03T02:46:53;98183.00;;;0.28;93.92
60589;BME280;46421;48.610;9.334;2023-03-03T02:49:21;98176.84;;;0.29;94.91
60589;BME280;46421;48.610;9.334;2023-03-03T02:51:47;98176.72;;;0.30;93.06
60589;BME280;46421;48.610;9.334;2023-03-03T02:54:14;98171.78;;;0.02;95.11
60589;BME280;46421;48.610;9.334;2023-03-03T02:56:41;98183.91;;;0.03;94.70
60589;BME280;46421;48.610;9.334;2023-03-03T02:59:06;98173.44;;;0.15;94.45
60589;BME280;46421;48.610;9.334;2023-03-03T03:01:32;98175.94;;;0.04;94.54
60589;BME280;46421;48.610;9.334;2023-03-03T03:04:10;98183.75;;;0.67;93.71
60589;BME280;46421;48.610;9.334;2023-03-03T03:06:36;98180.78;;;0.96;91.44
60589;BME280;46421;48.610;9.334;2023-03-03T03:09:03;98189.19;;;0.64;91.95
60589;BME280;46421;48.610;9.334;2023-03-03T03:11:29;98178.28;;;0.33;93.55
60589;BME280;46421;48.610;9.334;2023-03-03T03:13:55;98191.78;;;0.40;93.59
60589;BME280;46421;48.610;9.334;2023-03-03T03:16:20;98188.88;;;0.31;94.30
60589;BME280;46421;48.610;9.334;2023-03-03T03:18:45;98188.03;;;0.31;94.79
60589;BME280;46421;48.610;9.334;2023-03-03T03:21:12;98194.72;;;0.35;94.30
60589;BME280;46421;48.610;9.334;2023-03-03T03:23:38;98188.03;;;0.31;96.21
60589;BME280;46421;48.610;9.334;2023-03-03T03:26:05;98194.38;;;0.40;97.57
60589;BME280;46421;48.610;9.334;2023-03-03T03:28:31;98195.22;;;0.40;96.68
60589;BME280;46421;48.610;9.334;2023-03-03T03:30:56;98200.66;;;0.50;94.70
60589;BME280;46421;48.610;9.334;2023-03-03T03:33:22;98192.84;;;0.37;95.47
60589;BME280;46421;48.610;9.334;2023-03-03T03:35:47;98199.75;;;0.38;95.75
60589;BME280;46421;48.610;9.334;2023-03-03T03:38:13;98187.38;;;0.27;96.84
60589;BME280;46421;48.610;9.334;2023-03-03T03:40:39;98193.28;;;0.31;96.94
60589;BME280;46421;48.610;9.334;2023-03-03T03:43:04;98194.59;;;0.37;96.74
60589;BME280;46421;48.610;9.334;2023-03-03T03:45:30;98199.28;;;0.57;97.10
60589;BME280;46421;48.610;9.334;2023-03-03T03:47:55;98197.88;;;1.49;89.90
60589;BME280;46421;48.610;9.334;2023-03-03T03:50:20;98202.72;;;1.89;87.25
60589;BME280;46421;48.610;9.334;2023-03-03T03:52:46;98197.13;;;1.82;87.58
60589;BME280;46421;48.610;9.334;2023-03-03T03:55:12;98197.59;;;1.29;91.82
60589;BME280;46421;48.610;9.334;2023-03-03T03:57:37;98194.81;;;0.95;91.94
60589;BME280;46421;48.610;9.334;2023-03-03T04:00:04;98201.97;;;0.93;92.55
60589;BME280;46421;48.610;9.334;2023-03-03T04:02:29;98216.16;;;0.77;95.10
60589;BME280;46421;48.610;9.334;2023-03-03T04:04:55;98209.47;;;0.73;95.04
60589;BME280;46421;48.610;9.334;2023-03-03T04:07:20;98200.66;;;0.50;95.67
60589;BME280;46421;48.610;9.334;2023-03-03T04:09:46;98212.03;;;0.62;95.67
60589;BME280;46421;48.610;9.334;2023-03-03T04:12:11;98205.13;;;0.61;96.71
60589;BME280;46421;48.610;9.334;2023-03-03T04:14:37;98209.28;;;0.63;97.81
60589;BME280;46421;48.610;9.334;2023-03-03T04:17:02;98212.84;;;0.62;98.19
60589;BME280;46421;48.610;9.334;2023-03-03T04:19:27;98206.69;;;0.63;98.69
60589;BME280;46421;48.610;9.334;2023-03-03T04:21:53;98202.97;;;0.79;95.47
60589;BME280;46421;48.610;9.334;2023-03-03T04:24:18;98200.06;;;0.71;96.16
60589;BME280;46421;48.610;9.334;2023-03-03T04:26:44;98203.50;;;0.71;96.49
60589;BME280;46421;48.610;9.334;2023-03-03T04:29:09;98203.63;;;0.70;95.76
60589;BME280;46421;48.610;9.334;2023-03-03T04:31:35;98203.50;;;0.71;96.25
60589;BME280;46421;48.610;9.334;2023-03-03T04:34:00;98198.81;;;0.63;96.99
60589;BME280;46421;48.610;9.334;2023-03-03T04:36:25;98192.38;;;0.56;96.28
60589;BME280;46421;48.610;9.334;2023-03-03T04:38:51;98206.56;;;0.65;97.52
60589;BME280;46421;48.610;9.334;2023-03-03T04:41:16;98207.06;;;0.70;97.42
60589;BME280;46421;48.610;9.334;2023-03-03T04:43:42;98208.81;;;0.83;95.28
60589;BME280;46421;48.610;9.334;2023-03-03T04:46:07;98210.81;;;0.79;95.72
60589;BME280;46421;48.610;9.334;2023-03-03T04:48:33;98219.28;;;0.83;96.82
60589;BME280;46421;48.610;9.334;2023-03-03T04:50:58;98218.53;;;0.81;97.11
60589;BME280;46421;48.610;9.334;2023-03-03T04:53:23;98216.88;;;1.28;95.97
60589;BME280;46421;48.610;9.334;2023-03-03T04:55:53;98217.91;;;1.01;96.06
60589;BME280;46421;48.610;9.334;2023-03-03T04:58:19;98219.59;;;0.78;95.91
60589;BME280;46421;48.610;9.334;2023-03-03T05:00:52;98218.00;;;0.88;95.84
60589;BME280;46421;48.610;9.334;2023-03-03T05:03:18;98227.59;;;0.63;98.30
60589;BME280;46421;48.610;9.334;2023-03-03T05:05:45;98222.75;;;1.07;97.90
60589;BME280;46421;48.610;9.334;2023-03-03T05:08:10;98220.44;;;1.03;98.44
60589;BME280;46421;48.610;9.334;2023-03-03T05:10:36;98225.91;;;1.00;96.87
60589;BME280;46421;48.610;9.334;2023-03-03T05:13:01;98229.75;;;0.83;97.05
60589;BME280;46421;48.610;9.334;2023-03-03T05:15:27;98233.47;;;0.91;97.61
60589;BME280;46421;48.610;9.334;2023-03-03T05:17:52;98231.41;;;0.84;97.34
60589;BME280;46421;48.610;9.334;2023-03-03T05:20:18;98243.31;;;1.36;95.62
60589;BME280;46421;48.610;9.334;2023-03-03T05:22:43;98242.38;;;1.37;95.89
60589;BME280;46421;48.610;9.334;2023-03-03T05:25:09;98243.69;;;1.07;96.35
60589;BME280;46421;48.610;9.334;2023-03-03T05:27:36;98235.22;;;1.04;95.22
60589;BME280;46421;48.610;9.334;2023-03-03T05:30:02;98237.88;;;0.91;96.12
60589;BME280;46421;48.610;9.334;2023-03-03T05:32:27;98227.28;;;0.68;97.53
60589;BME280;46421;48.610;9.334;2023-03-03T05:34:53;98241.50;;;0.64;98.89
60589;BME280;46421;48.610;9.334;2023-03-03T05:37:18;98223.31;;;0.62;98.56
60589;BME280;46421;48.610;9.334;2023-03-03T05:39:44;98241.84;;;0.59;99.42
60589;BME280;46421;48.610;9.334;2023-03-03T05:42:11;98241.31;;;0.67;98.37
60589;BME280;46421;48.610;9.334;2023-03-03T05:44:37;98244.56;;;0.58;99.03
60589;BME280;46421;48.610;9.334;2023-03-03T05:47:03;98247.69;;;0.63;99.72
60589;BME280;46421;48.610;9.334;2023-03-03T05:49:28;98247.38;;;0.68;100.00
60589;BME280;46421;48.610;9.334;2023-03-03T05:51:54;98255.75;;;0.97;98.79
60589;BME280;46421;48.610;9.334;2023-03-03T05:54:19;98247.16;;;0.95;99.13
60589;BME280;46421;48.610;9.334;2023-03-03T05:56:44;98252.84;;;0.89;98.92
60589;BME280;46421;48.610;9.334;2023-03-03T05:59:10;98257.31;;;0.75;99.03
60589;BME280;46421;48.610;9.334;2023-03-03T06:01:35;98254.34;;;0.80;98.60
60589;BME280;46421;48.610;9.334;2023-03-03T06:04:00;98263.97;;;0.79;99.37
60589;BME280;46421;48.610;9.334;2023-03-03T06:06:26;98260.72;;;0.89;99.00
60589;BME280;46421;48.610;9.334;2023-03-03T06:08:52;98264.72;;;0.82;99.57
60589;BME280;46421;48.610;9.334;2023-03-03T06:11:18;98273.06;;;0.87;99.06
60589;BME280;46421;48.610;9.334;2023-03-03T06:13:43;98267.00;;;0.86;98.46
60589;BME280;46421;48.610;9.334;2023-03-03T06:16:09;98267.81;;;0.87;97.33
60589;BME280;46421;48.610;9.334;2023-03-03T06:18:34;98269.13;;;1.05;98.51
60589;BME280;46421;48.610;9.334;2023-03-03T06:21:00;98279.41;;;1.68;94.08
60589;BME280;46421;48.610;9.334;2023-03-03T06:23:25;98275.09;;;1.32;96.46
60589;BME280;46421;48.610;9.334;2023-03-03T06:25:51;98272.38;;;1.09;97.05
60589;BME280;46421;48.610;9.334;2023-03-03T06:28:17;98265.22;;;0.87;97.73
60589;BME280;46421;48.610;9.334;2023-03-03T06:30:43;98269.16;;;1.65;93.50
60589;BME280;46421;48.610;9.334;2023-03-03T06:33:08;98270.91;;;2.00;92.48
60589;BME280;46421;48.610;9.334;2023-03-03T06:35:34;98272.84;;;2.10;91.18
60589;BME280;46421;48.610;9.334;2023-03-03T06:37:59;98281.28;;;1.55;96.38
60589;BME280;46421;48.610;9.334;2023-03-03T06:40:24;98280.59;;;1.40;93.80
60589;BME280;46421;48.610;9.334;2023-03-03T06:42:50;98289.38;;;1.28;94.95
60589;BME280;46421;48.610;9.334;2023-03-03T06:45:15;98281.88;;;1.34;95.23
60589;BME280;46421;48.610;9.334;2023-03-03T06:47:41;98287.59;;;2.11;91.86
60589;BME280;46421;48.610;9.334;2023-03-03T06:50:08;98300.75;;;1.75;95.18
60589;BME280;46421;48.610;9.334;2023-03-03T06:52:34;98303.56;;;1.61;93.04
60589;BME280;46421;48.610;9.334;2023-03-03T06:55:01;98307.09;;;1.48;95.42
60589;BME280;46421;48.610;9.334;2023-03-03T06:57:34;98307.72;;;1.28;95.25
60589;BME280;46421;48.610;9.334;2023-03-03T07:00:11;98306.59;;;1.43;94.74
60589;BME280;46421;48.610;9.334;2023-03-03T07:02:38;98302.03;;;2.16;91.97
60589;BME280;46421;48.610;9.334;2023-03-03T07:05:10;98310.41;;;2.21;92.70
60589;BME280;46421;48.610;9.334;2023-03-03T07:07:36;98306.25;;;2.30;89.92
60589;BME280;46421;48.610;9.334;2023-03-03T07:10:12;98310.84;;;2.04;91.35
60589;BME280;46421;48.610;9.334;2023-03-03T07:12:40;98317.88;;;2.03;91.48
60589;BME280;46421;48.610;9.334;2023-03-03T07:15:24;98320.28;;;2.07;91.52
60589;BME280;46421;48.610;9.334;2023-03-03T07:17:55;98321.44;;;2.02;92.41
60589;BME280;46421;48.610;9.334;2023-03-03T07:20:31;98312.25;;;1.97;92.77
60589;BME280;46421;48.610;9.334;2023-03-03T07:22:58;98326.00;;;2.12;92.92
60589;BME280;46421;48.610;9.334;2023-03-03T07:25:31;98332.94;;;2.24;93.79
60589;BME280;46421;48.610;9.334;2023-03-03T07:28:12;98336.78;;;2.65;89.42
60589;BME280;46421;48.610;9.334;2023-03-03T07:30:42;98323.09;;;2.73;88.92
60589;BME280;46421;48.610;9.334;2023-03-03T07:33:19;98329.41;;;2.71;87.62
60589;BME280;46421;48.610;9.334;2023-03-03T07:35:48;98328.31;;;2.62;88.23
60589;BME280;46421;48.610;9.334;2023-03-03T07:40:56;98335.38;;;2.84;87.53
60589;BME280;46421;48.610;9.334;2023-03-03T07:43:32;98331.19;;;2.70;88.27
60589;BME280;46421;48.610;9.334;2023-03-03T07:49:31;98340.50;;;2.97;87.77
60589;BME280;46421;48.610;9.334;2023-03-03T07:51:59;98344.69;;;2.77;87.24
60589;BME280;46421;48.610;9.334;2023-03-03T07:54:38;98345.06;;;2.83;85.85
60589;BME280;46421;48.610;9.334;2023-03-03T07:57:25;98339.91;;;2.71;86.73
60589;BME280;46421;48.610;9.334;2023-03-03T08:02:51;98341.16;;;3.98;79.52
60589;BME280;46421;48.610;9.334;2023-03-03T08:06:02;98335.88;;;4.40;77.02
60589;BME280;46421;48.610;9.334;2023-03-03T08:08:28;98336.69;;;3.77;78.96
60589;BME280;46421;48.610;9.334;2023-03-03T08:11:02;98342.63;;;4.54;76.31
60589;BME280;46421;48.610;9.334;2023-03-03T08:16:20;98338.31;;;4.32;75.71
60589;BME280;46421;48.610;9.334;2023-03-03T08:18:50;98331.59;;;5.01;71.12
60589;BME280;46421;48.610;9.334;2023-03-03T08:21:24;98334.03;;;5.34;69.65
60589;BME280;46421;48.610;9.334;2023-03-03T08:23:51;98336.25;;;5.29;69.12
60589;BME280;46421;48.610;9.334;2023-03-03T08:26:21;98340.00;;;5.36;68.31
60589;BME280;46421;48.610;9.334;2023-03-03T08:28:47;98345.06;;;5.08;69.96
60589;BME280;46421;48.610;9.334;2023-03-03T08:31:13;98342.50;;;5.28;68.69
60589;BME280;46421;48.610;9.334;2023-03-03T08:33:38;98331.41;;;5.44;69.02
60589;BME280;46421;48.610;9.334;2023-03-03T08:36:05;98338.91;;;5.38;71.46
60589;BME280;46421;48.610;9.334;2023-03-03T08:38:31;98341.84;;;5.75;66.15
60589;BME280;46421;48.610;9.334;2023-03-03T08:40:56;98327.13;;;5.72;66.73
60589;BME280;46421;48.610;9.334;2023-03-03T08:43:21;98338.88;;;5.29;69.63
60589;BME280;46421;48.610;9.334;2023-03-03T08:45:51;98336.25;;;5.48;69.19
60589;BME280;46421;48.610;9.334;2023-03-03T08:48:16;98335.19;;;5.70;67.04
60589;BME280;46421;48.610;9.334;2023-03-03T08:50:42;98337.78;;;6.39;64.00
60589;BME280;46421;48.610;9.334;2023-03-03T08:53:08;98336.09;;;6.48;63.67
60589;BME280;46421;48.610;9.334;2023-03-03T08:55:34;98341.09;;;6.89;62.40
60589;BME280;46421;48.610;9.334;2023-03-03T08:57:59;98327.19;;;6.59;62.03
60589;BME280;46421;48.610;9.334;2023-03-03T09:00:25;98350.34;;;6.08;66.04
60589;BME280;46421;48.610;9.334;2023-03-03T09:02:51;98351.56;;;6.33;66.24
60589;BME280;46421;48.610;9.334;2023-03-03T09:05:18;98347.75;;;7.03;61.71
60589;BME280;46421;48.610;9.334;2023-03-03T09:07:44;98349.06;;;7.63;59.01
60589;BME280;46421;48.610;9.334;2023-03-03T09:10:12;98359.56;;;8.09;58.00
60589;BME280;46421;48.610;9.334;2023-03-03T09:12:40;98351.19;;;8.39;56.55
60589;BME280;46421;48.610;9.334;2023-03-03T09:15:23;98361.22;;;8.28;57.94
60589;BME280;46421;48.610;9.334;2023-03-03T09:17:49;98362.69;;;8.04;58.26
60589;BME280;46421;48.610;9.334;2023-03-03T09:20:22;98378.22;;;8.25;57.34
60589;BME280;46421;48.610;9.334;2023-03-03T09:22:48;98364.38;;;7.13;60.36
60589;BME280;46421;48.610;9.334;2023-03-03T09:25:35;98372.34;;;7.95;60.86
60589;BME280;46421;48.610;9.334;2023-03-03T09:28:00;98364.84;;;7.72;60.24
60589;BME280;46421;48.610;9.334;2023-03-03T09:30:38;98373.50;;;7.47;59.36
60589;BME280;46421;48.610;9.334;2023-03-03T09:35:51;98381.09;;;7.78;61.35
60589;BME280;46421;48.610;9.334;2023-03-03T09:38:30;98379.69;;;8.01;57.97
60589;BME280;46421;48.610;9.334;2023-03-03T09:41:11;98379.44;;;9.01;53.84
60589;BME280;46421;48.610;9.334;2023-03-03T09:46:27;98381.00;;;9.80;49.87
60589;BME280;46421;48.610;9.334;2023-03-03T09:54:26;98383.81;;;8.58;55.27
60589;BME280;46421;48.610;9.334;2023-03-03T10:03:10;98374.22;;;9.94;52.79
60589;BME280;46421;48.610;9.334;2023-03-03T10:05:58;98379.38;;;10.04;50.96
60589;BME280;46421;48.610;9.334;2023-03-03T10:11:18;98382.53;;;14.76;41.54
60589;BME280;46421;48.610;9.334;2023-03-03T10:16:46;98380.44;;;13.84;40.48
60589;BME280;46421;48.610;9.334;2023-03-03T10:19:37;98382.81;;;12.68;43.82
60589;BME280;46421;48.610;9.334;2023-03-03T10:22:44;98379.44;;;16.78;35.64
60589;BME280;46421;48.610;9.334;2023-03-03T10:25:22;98365.28;;;15.82;38.70
60589;BME280;46421;48.610;9.334;2023-03-03T10:30:34;98378.59;;;13.33;43.23
60589;BME280;46421;48.610;9.334;2023-03-03T10:33:22;98372.25;;;13.04;41.27
60589;BME280;46421;48.610;9.334;2023-03-03T10:44:14;98374.88;;;12.21;44.93
60589;BME280;46421;48.610;9.334;2023-03-03T10:46:53;98378.59;;;12.88;44.18
60589;BME280;46421;48.610;9.334;2023-03-03T10:49:39;98376.38;;;11.37;47.60
60589;BME280;46421;48.610;9.334;2023-03-03T10:52:18;98370.59;;;12.35;46.54
60589;BME280;46421;48.610;9.334;2023-03-03T10:55:10;98369.69;;;12.43;43.38
60589;BME280;46421;48.610;9.334;2023-03-03T11:14:40;98357.41;;;15.67;37.38
60589;BME280;46421;48.610;9.334;2023-03-03T11:17:22;98364.69;;;15.25;37.37
60589;BME280;46421;48.610;9.334;2023-03-03T11:22:33;98349.06;;;15.35;37.21
60589;BME280;46421;48.610;9.334;2023-03-03T11:25:29;98353.81;;;19.20;31.26
60589;BME280;46421;48.610;9.334;2023-03-03T11:36:00;98359.91;;;19.64;30.14
60589;BME280;46421;48.610;9.334;2023-03-03T11:38:56;98352.25;;;22.27;25.42
60589;BME280;46421;48.610;9.334;2023-03-03T11:46:48;98352.88;;;15.68;34.54
60589;BME280;46421;48.610;9.334;2023-03-03T11:52:23;98348.97;;;13.65;38.79
60589;BME280;46421;48.610;9.334;2023-03-03T11:54:53;98348.53;;;12.94;42.37
60589;BME280;46421;48.610;9.334;2023-03-03T12:00:00;98344.72;;;12.59;41.28
60589;BME280;46421;48.610;9.334;2023-03-03T12:07:55;98324.59;;;9.78;46.89
60589;BME280;46421;48.610;9.334;2023-03-03T12:10:47;98325.88;;;12.60;40.52
60589;BME280;46421;48.610;9.334;2023-03-03T12:13:21;98329.47;;;12.68;41.41
60589;BME280;46421;48.610;9.334;2023-03-03T12:16:16;98323.22;;;13.05;39.34
60589;BME280;46421;48.610;9.334;2023-03-03T12:19:05;98309.09;;;13.63;40.18
60589;BME280;46421;48.610;9.334;2023-03-03T12:27:34;98314.97;;;13.95;40.64
60589;BME280;46421;48.610;9.334;2023-03-03T12:30:19;98316.47;;;16.67;35.60
60589;BME280;46421;48.610;9.334;2023-03-03T12:33:11;98319.53;;;17.43;34.33
60589;BME280;46421;48.610;9.334;2023-03-03T12:38:39;98313.38;;;14.51;37.79
60589;BME280;46421;48.610;9.334;2023-03-03T12:44:20;98302.50;;;14.02;38.72
60589;BME280;46421;48.610;9.334;2023-03-03T12:46:57;98299.56;;;15.24;39.13
60589;BME280;46421;48.610;9.334;2023-03-03T12:49:32;98306.59;;;15.32;36.66
60589;BME280;46421;48.610;9.334;2023-03-03T12:52:12;98304.50;;;15.89;36.73
60589;BME280;46421;48.610;9.334;2023-03-03T12:57:32;98296.78;;;13.25;42.78
60589;BME280;46421;48.610;9.334;2023-03-03T13:02:38;98295.13;;;13.83;40.47
60589;BME280;46421;48.610;9.334;2023-03-03T13:05:19;98292.00;;;12.91;40.96
60589;BME280;46421;48.610;9.334;2023-03-03T13:08:16;98302.50;;;11.86;43.13
60589;BME280;46421;48.610;9.334;2023-03-03T13:11:11;98293.84;;;12.45;42.88
60589;BME280;46421;48.610;9.334;2023-03-03T13:16:20;98293.56;;;13.00;41.29
60589;BME280;46421;48.610;9.334;2023-03-03T13:19:08;98290.31;;;11.92;42.10
60589;BME280;46421;48.610;9.334;2023-03-03T13:21:41;98289.94;;;12.18;43.88
60589;BME280;46421;48.610;9.334;2023-03-03T13:24:42;98294.06;;;12.89;43.48
60589;BME280;46421;48.610;9.334;2023-03-03T13:27:13;98289.78;;;13.09;43.69
60589;BME280;46421;48.610;9.334;2023-03-03T13:30:03;98285.78;;;12.00;43.59
60589;BME280;46421;48.610;9.334;2023-03-03T13:32:34;98289.94;;;12.18;44.94
60589;BME280;46421;48.610;9.334;2023-03-03T13:35:18;98285.06;;;12.07;44.23
60589;BME280;46421;48.610;9.334;2023-03-03T13:37:52;98292.75;;;12.55;43.71
60589;BME280;46421;48.610;9.334;2023-03-03T13:40:36;98291.13;;;12.00;44.67
60589;BME280;46421;48.610;9.334;2023-03-03T13:43:23;98284.53;;;12.11;45.86
60589;BME280;46421;48.610;9.334;2023-03-03T13:46:08;98295.44;;;12.70;43.28
60589;BME280;46421;48.610;9.334;2023-03-03T13:51:22;98288.75;;;11.74;45.54
60589;BME280;46421;48.610;9.334;2023-03-03T13:54:06;98285.63;;;12.17;44.23
60589;BME280;46421;48.610;9.334;2023-03-03T13:59:40;98283.28;;;12.52;43.85
60589;BME280;46421;48.610;9.334;2023-03-03T14:02:19;98275.69;;;11.88;43.51
60589;BME280;46421;48.610;9.334;2023-03-03T14:05:03;98278.25;;;12.04;43.12
60589;BME280;46421;48.610;9.334;2023-03-03T14:07:39;98274.38;;;13.63;41.25
60589;BME280;46421;48.610;9.334;2023-03-03T14:10:20;98262.75;;;13.34;41.19
60589;BME280;46421;48.610;9.334;2023-03-03T14:15:32;98257.53;;;11.68;45.83
60589;BME280;46421;48.610;9.334;2023-03-03T14:18:23;98262.75;;;12.23;44.60
60589;BME280;46421;48.610;9.334;2023-03-03T14:20:53;98257.06;;;12.56;43.14
60589;BME280;46421;48.610;9.334;2023-03-03T14:26:08;98254.75;;;12.23;45.61
60589;BME280;46421;48.610;9.334;2023-03-03T14:28:48;98228.31;;;12.66;42.75
60589;BME280;46421;48.610;9.334;2023-03-03T14:31:24;98245.84;;;13.27;42.06
60589;BME280;46421;48.610;9.334;2023-03-03T14:33:59;98256.06;;;12.87;42.35
60589;BME280;46421;48.610;9.334;2023-03-03T14:36:34;98250.91;;;12.85;41.86
60589;BME280;46421;48.610;9.334;2023-03-03T14:39:01;98243.41;;;12.95;44.07
60589;BME280;46421;48.610;9.334;2023-03-03T14:41:39;98254.38;;;11.64;44.92
60589;BME280;46421;48.610;9.334;2023-03-03T14:44:47;98257.63;;;11.51;45.08
60589;BME280;46421;48.610;9.334;2023-03-03T14:47:27;98252.03;;;11.46;47.12
60589;BME280;46421;48.610;9.334;2023-03-03T14:49:54;98246.84;;;11.21;46.12
60589;BME280;46421;48.610;9.334;2023-03-03T14:52:26;98255.84;;;10.49;47.03
60589;BME280;46421;48.610;9.334;2023-03-03T14:54:57;98247.44;;;10.69;46.68
60589;BME280;46421;48.610;9.334;2023-03-03T14:57:40;98252.75;;;9.79;49.80
60589;BME280;46421;48.610;9.334;2023-03-03T15:02:42;98248.53;;;10.43;47.32
60589;BME280;46421;48.610;9.334;2023-03-03T15:07:43;98250.03;;;11.17;46.87
60589;BME280;46421;48.610;9.334;2023-03-03T15:10:09;98243.56;;;11.43;45.05
60589;BME280;46421;48.610;9.334;2023-03-03T15:12:39;98247.78;;;11.05;47.47
60589;BME280;46421;48.610;9.334;2023-03-03T15:17:35;98246.03;;;10.89;47.89
60589;BME280;46421;48.610;9.334;2023-03-03T15:20:23;98248.31;;;11.01;46.53
60589;BME280;46421;48.610;9.334;2023-03-03T15:26:08;98235.78;;;10.22;49.41
60589;BME280;46421;48.610;9.334;2023-03-03T15:31:23;98239.13;;;9.91;49.87
60589;BME280;46421;48.610;9.334;2023-03-03T15:39:44;98245.00;;;8.94;52.87
60589;BME280;46421;48.610;9.334;2023-03-03T15:42:17;98242.47;;;8.84;53.43
60589;BME280;46421;48.610;9.334;2023-03-03T15:44:56;98245.09;;;9.35;50.65
60589;BME280;46421;48.610;9.334;2023-03-03T15:47:42;98247.00;;;9.00;53.05
60589;BME280;46421;48.610;9.334;2023-03-03T15:50:17;98243.72;;;9.14;51.89
60589;BME280;46421;48.610;9.334;2023-03-03T15:55:50;98221.66;;;9.06;51.19
60589;BME280;46421;48.610;9.334;2023-03-03T16:03:59;98257.28;;;9.03;51.95